Terminal Aerodrome Forecast
Issued by NWS

Home | Current Version | Previous Version | Text Only | Print | Product List | Glossary On
Versions: 1 2 3 4 5 6 7 8 9 10 11 12 13 14 15 16 17 18 19 20
000
FTUS43 KSGF 250604 AAA
TAFJLN
TAF AMD
KJLN 250604Z 2506/2606 19010KT P6SM FEW250 WS020/21040KT
     FM250700 19010KT P6SM FEW250
     FM251500 22010KT P6SM FEW250
     FM252200 21006KT P6SM SCT200=

USA.gov is the U.S. government's official web portal to all federal, state and local government web resources and services.